createdAt,value
2019-01-16T00:00:41.248Z,13.90
2019-01-16T00:03:10.512Z,14.40
2019-01-16T00:05:42.472Z,14.93
2019-01-16T00:08:29.404Z,16.03
2019-01-16T00:10:58.889Z,15.07
2019-01-16T00:13:30.035Z,14.97
2019-01-16T00:16:04.118Z,16.37
2019-01-16T00:18:35.254Z,15.10
2019-01-16T00:21:12.238Z,15.47
2019-01-16T00:23:46.376Z,16.57
2019-01-16T00:26:33.578Z,16.87
2019-01-16T00:29:08.295Z,16.90
2019-01-16T00:32:16.889Z,17.70
2019-01-16T00:34:48.005Z,19.30
2019-01-16T00:37:34.970Z,19.33
2019-01-16T00:40:09.334Z,19.70
2019-01-16T00:42:47.109Z,19.60
2019-01-16T00:45:21.710Z,19.97
2019-01-16T00:48:04.936Z,21.87
2019-01-16T00:50:52.160Z,19.83
2019-01-16T00:53:28.932Z,20.53
2019-01-16T00:56:00.586Z,19.67
2019-01-16T00:58:37.534Z,19.53
2019-01-16T01:01:17.827Z,19.73
2019-01-16T01:03:49.184Z,20.00
2019-01-16T01:06:33.456Z,18.60
2019-01-16T01:09:16.333Z,19.73
2019-01-16T01:11:56.159Z,20.60
2019-01-16T01:14:27.692Z,21.10
2019-01-16T01:16:58.815Z,20.50
2019-01-16T01:19:46.721Z,20.90
2019-01-16T01:22:20.566Z,20.00
2019-01-16T01:24:49.862Z,19.63
2019-01-16T01:27:35.995Z,20.40
2019-01-16T01:30:14.547Z,20.83
2019-01-16T01:32:54.566Z,20.23
2019-01-16T01:35:34.206Z,19.87
2019-01-16T01:38:21.172Z,22.70
2019-01-16T01:40:52.326Z,21.13
2019-01-16T01:43:21.591Z,23.30
2019-01-16T01:45:55.417Z,22.27
2019-01-16T01:48:39.971Z,22.33
2019-01-16T01:51:13.931Z,22.60
2019-01-16T01:53:45.042Z,22.37
2019-01-16T01:56:18.885Z,23.40
2019-01-16T01:59:08.172Z,23.40
2019-01-16T02:01:50.955Z,23.63
2019-01-16T02:04:22.139Z,24.77
2019-01-16T02:07:09.365Z,23.70
2019-01-16T02:09:40.830Z,22.83
2019-01-16T02:12:11.985Z,23.80
2019-01-16T02:14:52.098Z,22.63
2019-01-16T02:17:26.937Z,24.03
2019-01-16T02:20:00.771Z,22.50
2019-01-16T02:22:37.999Z,22.93
2019-01-16T02:25:18.195Z,22.43
2019-01-16T02:28:04.373Z,21.83
2019-01-16T02:30:35.681Z,22.40
2019-01-16T02:33:15.682Z,23.07
2019-01-16T02:36:05.349Z,22.43
2019-01-16T02:38:39.166Z,21.93
2019-01-16T02:41:25.080Z,21.90
2019-01-16T02:44:04.659Z,22.27
2019-01-16T02:46:52.248Z,22.20
2019-01-16T02:49:26.080Z,21.40
2019-01-16T02:52:09.054Z,21.37
2019-01-16T02:54:40.196Z,22.23
2019-01-16T03:00:03.927Z,21.63
2019-01-16T03:02:35.055Z,22.00
2019-01-16T03:05:24.709Z,22.80
2019-01-16T03:07:55.915Z,20.87
2019-01-16T03:10:33.025Z,22.83
2019-01-16T03:13:13.159Z,21.77
2019-01-16T03:15:46.705Z,21.77
2019-01-16T03:18:20.510Z,21.70
2019-01-16T03:21:07.228Z,22.10
2019-01-16T03:23:52.792Z,22.00
2019-01-16T03:26:26.679Z,23.73
2019-01-16T03:29:09.538Z,22.37
2019-01-16T03:31:40.805Z,21.40
2019-01-16T03:34:14.667Z,22.00
2019-01-16T03:37:02.751Z,20.37
2019-01-16T03:42:44.538Z,19.60
2019-01-16T03:45:21.521Z,21.23
2019-01-16T03:47:52.679Z,22.33
2019-01-16T03:50:26.189Z,21.43
2019-01-16T03:53:03.152Z,21.30
2019-01-16T03:55:52.517Z,22.37
2019-01-16T03:58:32.221Z,21.13
2019-01-16T04:01:03.371Z,22.43
2019-01-16T04:03:37.371Z,22.70
2019-01-16T04:06:08.489Z,20.47
2019-01-16T04:08:48.847Z,21.93
2019-01-16T04:11:20.201Z,21.07
2019-01-16T04:13:53.826Z,22.30
2019-01-16T04:16:41.025Z,22.00
2019-01-16T04:19:21.762Z,21.30
2019-01-16T04:21:50.733Z,21.63
2019-01-16T04:24:27.523Z,23.57
2019-01-16T04:27:15.427Z,22.60
2019-01-16T04:30:02.855Z,22.13
2019-01-16T04:32:33.991Z,20.90
2019-01-16T04:35:09.052Z,22.80
2019-01-16T04:40:41.933Z,21.77
2019-01-16T04:43:13.511Z,23.40
2019-01-16T04:45:47.497Z,23.20
2019-01-16T04:48:21.742Z,23.23
2019-01-16T04:51:05.119Z,23.33
2019-01-16T04:53:52.326Z,23.00
2019-01-16T04:56:23.470Z,23.90
2019-01-16T04:58:55.366Z,24.17
2019-01-16T05:01:42.303Z,22.40
2019-01-16T05:04:13.422Z,23.83
2019-01-16T05:06:44.600Z,24.30
2019-01-16T05:09:15.795Z,25.00
2019-01-16T05:11:56.055Z,25.80
2019-01-16T05:14:35.935Z,24.67
2019-01-16T05:17:12.884Z,23.77
2019-01-16T05:19:49.813Z,24.97
2019-01-16T05:22:26.573Z,25.83
2019-01-16T05:25:00.481Z,23.70
2019-01-16T05:27:33.997Z,26.57
2019-01-16T05:30:03.307Z,27.13
2019-01-16T05:32:46.300Z,27.20
2019-01-16T05:35:23.178Z,27.13
2019-01-16T05:38:09.386Z,26.93
2019-01-16T05:40:47.240Z,29.77
2019-01-16T05:43:34.096Z,27.73
2019-01-16T05:46:05.230Z,29.70
2019-01-16T05:48:36.378Z,29.67
2019-01-16T05:51:22.202Z,30.40
2019-01-16T05:53:51.456Z,28.63
2019-01-16T05:56:32.368Z,29.10
2019-01-16T05:59:05.926Z,27.93
2019-01-16T06:01:53.151Z,27.87
2019-01-16T06:04:29.976Z,29.80
2019-01-16T06:07:32.205Z,27.20
2019-01-16T06:10:12.562Z,28.70
2019-01-16T06:12:58.842Z,27.70
2019-01-16T06:15:45.196Z,29.13
2019-01-16T06:18:25.320Z,27.73
2019-01-16T06:21:02.490Z,28.50
2019-01-16T06:23:45.610Z,28.90
2019-01-16T06:26:19.770Z,28.53
2019-01-16T06:29:07.365Z,29.47
2019-01-16T06:31:45.540Z,29.27
2019-01-16T06:34:32.503Z,29.23
2019-01-16T06:37:19.906Z,29.17
2019-01-16T06:39:59.930Z,28.67
2019-01-16T06:42:36.835Z,28.87
2019-01-16T06:45:27.887Z,28.43
2019-01-16T06:48:11.072Z,28.87
2019-01-16T06:50:42.218Z,28.70
2019-01-16T06:53:13.428Z,29.10
2019-01-16T06:55:48.682Z,27.50
2019-01-16T06:58:31.282Z,28.63
2019-01-16T07:01:02.471Z,27.33
2019-01-16T07:03:48.740Z,26.80
2019-01-16T07:06:34.890Z,27.70
2019-01-16T07:09:13.272Z,28.60
2019-01-16T07:11:44.478Z,27.73
2019-01-16T07:14:27.771Z,28.63
2019-01-16T07:17:15.432Z,28.93
2019-01-16T07:19:52.594Z,28.27
2019-01-16T07:22:23.932Z,28.50
2019-01-16T07:25:03.784Z,27.27
2019-01-16T07:27:51.146Z,29.97
2019-01-16T07:30:44.046Z,28.03
2019-01-16T07:33:31.414Z,26.83
2019-01-16T07:36:11.622Z,27.33
2019-01-16T07:38:42.790Z,26.87
2019-01-16T07:41:22.687Z,28.10
2019-01-16T07:43:56.722Z,27.17
2019-01-16T07:46:27.902Z,51.67
2019-01-16T07:49:01.725Z,27.10
2019-01-16T07:51:45.426Z,24.83
2019-01-16T07:54:32.920Z,27.30
2019-01-16T07:57:07.022Z,25.40
2019-01-16T07:59:38.149Z,27.43
2019-01-16T08:02:12.066Z,27.87
2019-01-16T08:04:47.726Z,26.40
2019-01-16T08:07:24.686Z,25.30
2019-01-16T08:10:01.359Z,27.23
2019-01-16T08:12:38.250Z,26.10
2019-01-16T08:15:26.988Z,24.57
2019-01-16T08:18:01.184Z,25.40
2019-01-16T08:20:35.167Z,25.70
2019-01-16T08:23:22.864Z,27.70
2019-01-16T08:25:59.973Z,27.30
2019-01-16T08:28:45.471Z,24.90
2019-01-16T08:31:22.595Z,25.67
2019-01-16T08:34:08.445Z,26.73
2019-01-16T08:36:51.614Z,26.03
2019-01-16T08:39:22.976Z,25.20
2019-01-16T08:42:00.023Z,24.90
2019-01-16T08:44:34.096Z,25.70
2019-01-16T08:47:11.189Z,25.93
2019-01-16T08:49:54.634Z,24.03
2019-01-16T08:52:42.057Z,26.10
2019-01-16T08:55:13.360Z,26.00
2019-01-16T08:57:59.487Z,26.50
2019-01-16T09:00:31.391Z,25.87
2019-01-16T09:03:14.558Z,23.90
2019-01-16T09:05:46.277Z,24.47
2019-01-16T09:08:20.211Z,24.53
2019-01-16T09:11:00.531Z,24.73
2019-01-16T09:13:37.427Z,22.70
2019-01-16T09:16:23.269Z,24.40
2019-01-16T09:18:57.139Z,22.87
2019-01-16T09:21:44.122Z,22.53
2019-01-16T09:24:22.056Z,23.93
2019-01-16T09:26:59.560Z,21.87
2019-01-16T09:29:30.713Z,22.53
2019-01-16T09:32:04.264Z,21.37
2019-01-16T09:34:35.438Z,21.20
2019-01-16T09:37:07.511Z,21.97
2019-01-16T09:39:41.383Z,20.53
2019-01-16T09:42:21.395Z,19.63
2019-01-16T09:44:55.662Z,19.00
2019-01-16T09:47:28.742Z,18.90
2019-01-16T09:49:59.841Z,20.43
2019-01-16T09:52:43.154Z,20.17
2019-01-16T09:55:18.139Z,19.33
2019-01-16T09:57:49.309Z,19.63
2019-01-16T10:00:36.637Z,19.27
2019-01-16T10:03:19.759Z,19.63
2019-01-16T10:06:06.911Z,16.50
2019-01-16T10:08:55.017Z,16.63
2019-01-16T10:11:32.193Z,17.47
2019-01-16T10:14:03.365Z,17.57
2019-01-16T10:16:51.916Z,17.67
2019-01-16T10:19:32.164Z,18.97
2019-01-16T10:22:21.291Z,17.07
2019-01-16T10:24:55.218Z,16.10
2019-01-16T10:27:35.076Z,16.30
2019-01-16T10:30:28.671Z,16.63
2019-01-16T10:32:59.825Z,15.07
2019-01-16T10:35:34.676Z,17.00
2019-01-16T10:38:16.104Z,17.03
2019-01-16T10:41:03.251Z,15.60
2019-01-16T10:43:34.380Z,16.40
2019-01-16T10:46:08.358Z,16.20
2019-01-16T10:48:39.509Z,16.23
2019-01-16T10:51:10.653Z,15.83
2019-01-16T10:53:41.940Z,17.53
2019-01-16T10:56:31.362Z,16.17
2019-01-16T10:59:11.153Z,16.63
2019-01-16T11:01:42.336Z,15.30
2019-01-16T11:04:13.546Z,14.70
2019-01-16T11:09:32.561Z,14.90
2019-01-16T11:12:04.125Z,14.20
2019-01-16T11:14:43.989Z,15.13
2019-01-16T11:17:15.234Z,14.50
2019-01-16T11:19:49.259Z,15.83
2019-01-16T11:22:23.241Z,14.83
2019-01-16T11:24:57.005Z,14.40
2019-01-16T11:27:31.185Z,14.20
2019-01-16T11:30:08.417Z,13.77
2019-01-16T11:32:45.374Z,14.60
2019-01-16T11:35:32.577Z,14.20
2019-01-16T11:38:19.749Z,16.13
2019-01-16T11:40:53.556Z,14.43
2019-01-16T11:43:26.062Z,15.10
2019-01-16T11:46:00.131Z,14.97
2019-01-16T11:48:37.026Z,14.50
2019-01-16T11:51:08.232Z,12.83
2019-01-16T11:53:42.363Z,15.20
2019-01-16T11:56:13.505Z,15.03
2019-01-16T11:59:01.009Z,14.87
2019-01-16T12:01:48.080Z,16.03
2019-01-16T12:04:19.284Z,14.73
2019-01-16T12:06:50.424Z,15.10
2019-01-16T12:09:21.633Z,16.60
2019-01-16T12:12:08.646Z,15.27
2019-01-16T12:14:55.152Z,16.00
2019-01-16T12:20:09.429Z,16.77
2019-01-16T12:22:40.827Z,16.90
2019-01-16T12:25:17.852Z,17.43
2019-01-16T12:27:48.999Z,16.00
2019-01-16T12:30:22.955Z,15.97
2019-01-16T12:32:54.138Z,15.30
2019-01-16T12:35:31.256Z,16.10
2019-01-16T12:38:02.403Z,16.27
2019-01-16T12:40:31.652Z,16.47
2019-01-16T12:43:14.819Z,15.40
2019-01-16T12:45:48.346Z,15.23
2019-01-16T12:48:29.558Z,15.20
2019-01-16T12:51:00.726Z,15.63
2019-01-16T12:53:34.548Z,14.73
2019-01-16T12:56:06.793Z,14.30
2019-01-16T12:58:43.906Z,13.67
2019-01-16T13:01:20.936Z,13.57
2019-01-16T13:03:54.998Z,12.73
2019-01-16T13:06:33.209Z,12.87
2019-01-16T13:09:14.201Z,11.90
2019-01-16T13:11:48.912Z,11.00
2019-01-16T13:14:20.030Z,11.50
2019-01-16T13:16:51.142Z,9.83
2019-01-16T13:19:34.243Z,10.50
2019-01-16T13:22:11.405Z,10.00
2019-01-16T13:24:45.588Z,9.50
2019-01-16T13:27:23.000Z,8.97
2019-01-16T13:30:06.270Z,8.60
2019-01-16T13:32:39.854Z,10.17
2019-01-16T13:35:14.127Z,8.67
2019-01-16T13:37:53.818Z,8.60
2019-01-16T13:40:27.387Z,8.60
2019-01-16T13:43:02.124Z,7.77
2019-01-16T13:45:50.076Z,8.10
2019-01-16T13:48:37.377Z,8.00
2019-01-16T13:51:24.286Z,7.73
2019-01-16T13:54:11.408Z,7.43
2019-01-16T13:56:54.582Z,7.03
2019-01-16T13:59:37.966Z,5.97
2019-01-16T14:02:16.526Z,6.93
2019-01-16T14:05:05.721Z,9.93
2019-01-16T14:07:54.787Z,10.73
2019-01-16T14:10:27.733Z,13.20
2019-01-16T14:13:04.857Z,15.23
2019-01-16T14:15:37.000Z,15.60
2019-01-16T14:18:11.096Z,14.20
2019-01-16T14:20:42.267Z,15.20
2019-01-16T14:23:29.459Z,15.20
2019-01-16T14:26:16.352Z,14.47
2019-01-16T14:29:03.674Z,13.73
2019-01-16T14:31:34.794Z,13.10
2019-01-16T14:34:04.735Z,13.67
2019-01-16T14:36:45.710Z,12.50
2019-01-16T14:39:35.169Z,13.07
2019-01-16T14:42:22.386Z,12.73
2019-01-16T14:44:56.348Z,12.90
2019-01-16T14:47:27.591Z,14.20
2019-01-16T14:50:01.116Z,15.37
2019-01-16T14:52:32.260Z,15.70
2019-01-16T14:55:06.025Z,16.60
2019-01-16T14:57:34.544Z,16.23
2019-01-16T15:00:24.911Z,17.63
2019-01-16T15:03:12.039Z,18.07
2019-01-16T15:05:46.082Z,17.30
2019-01-16T15:08:29.033Z,17.50
2019-01-16T15:11:12.195Z,17.73
2019-01-16T15:13:53.038Z,17.40
2019-01-16T15:16:24.209Z,17.20
2019-01-16T15:18:57.795Z,16.13
2019-01-16T15:21:28.948Z,16.67
2019-01-16T15:24:16.318Z,16.77
2019-01-16T15:26:49.842Z,15.67
2019-01-16T15:29:36.886Z,15.93
2019-01-16T15:32:24.146Z,15.37
2019-01-16T15:35:04.912Z,15.17
2019-01-16T15:37:36.046Z,15.30
2019-01-16T15:40:28.405Z,15.10
2019-01-16T15:42:59.527Z,14.67
2019-01-16T15:45:37.187Z,13.63
2019-01-16T15:48:26.496Z,14.97
2019-01-16T15:51:06.259Z,15.50
2019-01-16T15:53:52.413Z,13.93
2019-01-16T15:56:23.915Z,13.90
2019-01-16T15:58:58.391Z,14.53
2019-01-16T16:01:38.343Z,14.23
2019-01-16T16:04:15.205Z,14.70
2019-01-16T16:06:58.309Z,14.13
2019-01-16T16:09:35.046Z,15.00
2019-01-16T16:12:21.998Z,15.23
2019-01-16T16:15:11.283Z,15.33
2019-01-16T16:17:46.006Z,15.87
2019-01-16T16:20:23.031Z,16.80
2019-01-16T16:22:54.231Z,16.90
2019-01-16T16:25:28.022Z,17.90
2019-01-16T16:27:59.967Z,16.80
2019-01-16T16:30:46.307Z,16.53
2019-01-16T16:33:23.757Z,17.83
2019-01-16T16:35:55.970Z,17.10
2019-01-16T16:38:29.887Z,16.70
2019-01-16T16:41:09.963Z,17.60
2019-01-16T16:43:41.279Z,16.23
2019-01-16T16:46:13.487Z,15.97
2019-01-16T16:48:56.970Z,16.83
2019-01-16T16:51:30.588Z,17.80
2019-01-16T16:54:01.700Z,16.20
2019-01-16T16:56:45.392Z,16.50
2019-01-16T16:59:22.432Z,16.60
2019-01-16T17:01:59.171Z,16.97
2019-01-16T17:04:48.139Z,17.13
2019-01-16T17:07:18.186Z,15.30
2019-01-16T17:09:55.034Z,15.20
2019-01-16T17:12:26.174Z,14.57
2019-01-16T17:15:12.555Z,13.90
2019-01-16T17:17:43.714Z,15.03
2019-01-16T17:20:18.287Z,13.00
2019-01-16T17:22:52.363Z,14.30
2019-01-16T17:25:39.234Z,14.40
2019-01-16T17:28:10.418Z,13.93
2019-01-16T17:30:44.360Z,12.30
2019-01-16T17:33:18.167Z,11.57
2019-01-16T17:35:49.338Z,14.03
2019-01-16T17:38:20.485Z,16.67
2019-01-16T17:43:43.215Z,13.20
2019-01-16T17:46:14.470Z,12.30
2019-01-16T17:49:03.537Z,12.27
2019-01-16T17:51:47.970Z,12.83
2019-01-16T17:54:11.816Z,12.70
2019-01-16T17:56:49.380Z,12.87
2019-01-16T17:59:24.065Z,13.03
2019-01-16T18:02:03.052Z,13.70
2019-01-16T18:04:34.199Z,13.40
2019-01-16T18:07:08.330Z,12.90
2019-01-16T18:09:39.441Z,14.40
2019-01-16T18:12:16.895Z,14.70
2019-01-16T18:15:04.497Z,14.00
2019-01-16T18:17:35.752Z,15.23
2019-01-16T18:20:17.535Z,12.37
2019-01-16T18:22:51.714Z,14.90
2019-01-16T18:25:38.625Z,14.98
2019-01-16T18:28:15.808Z,12.90
2019-01-16T18:30:55.428Z,14.18
2019-01-16T18:33:29.638Z,13.45
2019-01-16T18:36:07.770Z,13.20
2019-01-16T18:38:39.081Z,14.78
2019-01-16T18:41:10.221Z,14.10
2019-01-16T18:43:50.829Z,14.40
2019-01-16T18:46:40.301Z,13.68
2019-01-16T18:49:11.520Z,12.00
2019-01-16T18:52:00.860Z,14.30
2019-01-16T18:54:32.036Z,12.85
2019-01-16T18:57:21.183Z,13.95
2019-01-16T18:59:52.666Z,14.97
2019-01-16T19:02:28.142Z,14.40
2019-01-16T19:05:14.892Z,13.83
2019-01-16T19:08:01.118Z,13.80
2019-01-16T19:10:32.416Z,16.77
2019-01-16T19:13:15.510Z,15.60
2019-01-16T19:15:47.350Z,16.67
2019-01-16T19:18:24.338Z,16.12
2019-01-16T19:20:55.489Z,17.57
2019-01-16T19:23:29.277Z,18.60
2019-01-16T19:26:00.952Z,18.60
2019-01-16T19:28:47.304Z,19.45
2019-01-16T19:31:21.317Z,20.20
2019-01-16T19:34:07.640Z,19.15
2019-01-16T19:36:55.010Z,19.40
2019-01-16T19:39:42.211Z,20.55
2019-01-16T19:42:26.410Z,20.12
2019-01-16T19:44:55.702Z,19.77
2019-01-16T19:47:27.334Z,20.23
2019-01-16T19:49:56.691Z,19.30
2019-01-16T19:52:31.438Z,19.57
2019-01-16T19:55:14.515Z,21.10
2019-01-16T19:57:48.521Z,20.52
2019-01-16T20:00:30.614Z,18.52
2019-01-16T20:03:11.014Z,19.32
2019-01-16T20:05:45.148Z,17.12
2019-01-16T20:08:23.387Z,19.82
2019-01-16T20:10:52.869Z,18.67
2019-01-16T20:13:39.864Z,18.37
2019-01-16T20:16:22.807Z,19.25
2019-01-16T20:18:53.981Z,18.52
2019-01-16T20:21:27.692Z,18.60
2019-01-16T20:24:07.817Z,19.65
2019-01-16T20:26:42.129Z,20.37
2019-01-16T20:29:22.110Z,20.40
2019-01-16T20:31:53.254Z,20.85
2019-01-16T20:34:36.131Z,20.27
2019-01-16T20:37:22.891Z,19.80
2019-01-16T20:40:06.070Z,19.35
2019-01-16T20:42:51.853Z,18.00
2019-01-16T20:45:32.033Z,18.57
2019-01-16T20:48:03.160Z,19.35
2019-01-16T20:50:36.730Z,18.07
2019-01-16T20:53:07.886Z,17.82
2019-01-16T20:55:45.818Z,19.23
2019-01-16T20:58:17.612Z,19.62
2019-01-16T21:00:46.893Z,18.45
2019-01-16T21:03:18.053Z,17.07
2019-01-16T21:05:54.824Z,18.42
2019-01-16T21:08:34.819Z,15.30
2019-01-16T21:11:18.368Z,18.40
2019-01-16T21:13:52.177Z,17.92
2019-01-16T21:16:29.496Z,18.02
2019-01-16T21:19:03.025Z,14.45
2019-01-16T21:21:36.937Z,16.52
2019-01-16T21:24:16.677Z,16.73
2019-01-16T21:26:59.497Z,16.37
2019-01-16T21:29:30.632Z,15.83
2019-01-16T21:31:59.906Z,15.95
2019-01-16T21:34:37.300Z,16.35
2019-01-16T21:37:11.435Z,14.68
2019-01-16T21:39:42.624Z,14.93
2019-01-16T21:42:28.832Z,14.90
2019-01-16T21:45:00.173Z,15.70
2019-01-16T21:47:37.310Z,15.30
2019-01-16T21:50:26.822Z,15.20
2019-01-16T21:52:57.988Z,14.68
2019-01-16T21:55:31.542Z,14.93
2019-01-16T21:58:03.218Z,14.00
2019-01-16T22:00:34.364Z,13.70
2019-01-16T22:03:08.012Z,13.93
2019-01-16T22:05:47.708Z,13.83
2019-01-16T22:08:34.380Z,14.15
2019-01-16T22:11:14.123Z,12.20
2019-01-16T22:13:45.310Z,12.65
2019-01-16T22:16:17.775Z,13.68
2019-01-16T22:18:51.617Z,12.80
2019-01-16T22:21:28.866Z,13.58
2019-01-16T22:24:03.356Z,13.45
2019-01-16T22:26:49.551Z,12.03
2019-01-16T22:29:26.473Z,12.10
2019-01-16T22:32:06.814Z,12.85
2019-01-16T22:34:46.669Z,12.68
2019-01-16T22:37:17.786Z,13.20
2019-01-16T22:39:48.921Z,12.78
2019-01-16T22:42:21.151Z,12.70
2019-01-16T22:44:52.270Z,12.68
2019-01-16T22:47:23.413Z,12.93
2019-01-16T22:50:11.282Z,12.63
2019-01-16T22:52:49.271Z,13.07
2019-01-16T22:55:29.464Z,11.93
2019-01-16T22:58:15.909Z,12.23
2019-01-16T23:00:55.556Z,12.33
2019-01-16T23:03:35.381Z,12.25
2019-01-16T23:06:07.615Z,12.58
2019-01-16T23:08:38.829Z,13.40
2019-01-16T23:11:10.089Z,14.18
2019-01-16T23:13:43.681Z,11.97
2019-01-16T23:16:17.193Z,13.43
2019-01-16T23:18:51.441Z,11.63
2019-01-16T23:21:31.287Z,12.20
2019-01-16T23:24:03.243Z,12.63
2019-01-16T23:26:50.137Z,13.50
2019-01-16T23:29:24.464Z,14.40
2019-01-16T23:32:01.534Z,13.55
2019-01-16T23:34:35.613Z,14.78
2019-01-16T23:37:07.849Z,13.70
2019-01-16T23:39:37.571Z,16.05
2019-01-16T23:42:11.591Z,14.15
2019-01-16T23:44:54.660Z,15.38
2019-01-16T23:47:25.892Z,15.03
2019-01-16T23:50:05.736Z,15.23
2019-01-16T23:52:39.917Z,15.95
2019-01-16T23:55:14.155Z,15.53
2019-01-16T23:57:50.981Z,16.77
